Time;durP1;ratioP1;P1;durP2;ratioP2;P2;SDS_P1;SDS_P2;PMS_P1;PMS_P2;Temp;Humidity;BMP_temperature;BMP_pressure;BME280_temperature;BME280_humidity;BME280_pressure;Samples;Min_cycle;Max_cycle;Signal;HPM_P1;HPM_P2
2021/08/13 00:01:08;;;;;;;5.28;4.15;;;;;;;;;;5092499;28;20035;-46
2021/08/13 00:03:34;;;;;;;5.13;3.92;;;;;;;;;;5092668;28;20116;-47
2021/08/13 00:06:01;;;;;;;4.95;4.07;;;;;;;;;;5092573;28;20095;-46
2021/08/13 00:08:27;;;;;;;4.68;4.05;;;;;;;;;;5092148;28;20113;-45
2021/08/13 00:10:53;;;;;;;7.40;4.50;;;;;;;;;;5092116;28;20025;-45
2021/08/13 00:13:19;;;;;;;6.95;4.30;;;;;;;;;;5092453;28;20046;-45
2021/08/13 00:15:45;;;;;;;4.78;4.00;;;;;;;;;;5092437;28;20024;-46
2021/08/13 00:18:11;;;;;;;8.45;4.60;;;;;;;;;;5092595;28;20143;-49
2021/08/13 00:20:37;;;;;;;6.97;4.32;;;;;;;;;;5092686;28;20028;-47
2021/08/13 00:23:03;;;;;;;6.18;4.00;;;;;;;;;;5092312;28;20020;-45
2021/08/13 00:25:29;;;;;;;6.75;4.57;;;;;;;;;;5092321;28;20032;-45
2021/08/13 00:27:55;;;;;;;6.38;4.43;;;;;;;;;;5092199;28;20027;-48
2021/08/13 00:30:22;;;;;;;5.25;4.57;;;;;;;;;;5092129;28;20070;-46
2021/08/13 00:32:48;;;;;;;5.55;4.13;;;;;;;;;;5092148;28;20024;-46
2021/08/13 00:35:14;;;;;;;7.10;5.07;;;;;;;;;;5092039;28;20448;-45
2021/08/13 00:37:40;;;;;;;5.38;4.00;;;;;;;;;;5091984;28;20078;-48
2021/08/13 00:40:07;;;;;;;8.85;4.60;;;;;;;;;;5092088;28;20020;-46
2021/08/13 00:42:33;;;;;;;6.18;4.63;;;;;;;;;;5092032;28;20136;-50
2021/08/13 00:44:59;;;;;;;5.38;4.25;;;;;;;;;;5092100;28;20032;-49
2021/08/13 00:47:25;;;;;;;5.82;4.80;;;;;;;;;;5091943;28;20043;-45
2021/08/13 00:49:51;;;;;;;6.93;4.93;;;;;;;;;;5091919;28;20028;-45
2021/08/13 00:52:18;;;;;;;6.72;4.80;;;;;;;;;;5091893;28;20042;-46
2021/08/13 00:54:44;;;;;;;5.45;4.50;;;;;;;;;;5091811;28;20020;-46
2021/08/13 00:57:10;;;;;;;5.70;4.20;;;;;;;;;;5091932;28;20032;-45
2021/08/13 00:59:37;;;;;;;8.13;4.47;;;;;;;;;;5091867;28;20051;-45
2021/08/13 01:02:04;;;;;;;6.38;4.22;;;;;;;;;;5091126;28;20043;-47
2021/08/13 01:04:30;;;;;;;9.18;4.70;;;;;;;;;;5091652;28;20032;-47
2021/08/13 01:06:56;;;;;;;6.15;4.40;;;;;;;;;;5091815;28;20024;-46
2021/08/13 01:09:22;;;;;;;7.40;4.65;;;;;;;;;;5091708;28;20024;-48
2021/08/13 01:12:01;;;;;;;7.90;4.47;;;;;;;;;;5091747;28;20071;-46
2021/08/13 01:14:37;;;;;;;4.20;3.72;;;;;;;;;;5091699;28;20043;-46
2021/08/13 01:17:04;;;;;;;5.40;4.20;;;;;;;;;;5091633;28;20506;-46
2021/08/13 01:19:35;;;;;;;6.03;4.50;;;;;;;;;;5091667;28;20032;-46
2021/08/13 01:22:04;;;;;;;5.05;4.15;;;;;;;;;;5091600;28;20475;-46
2021/08/13 01:24:32;;;;;;;5.40;4.43;;;;;;;;;;5091553;28;20020;-46
2021/08/13 01:27:09;;;;;;;6.53;4.53;;;;;;;;;;5091452;28;20042;-46
2021/08/13 01:29:35;;;;;;;6.20;4.20;;;;;;;;;;5091822;28;20017;-46
2021/08/13 01:32:13;;;;;;;5.43;3.72;;;;;;;;;;5091701;28;20021;-49
2021/08/13 01:34:44;;;;;;;4.90;4.40;;;;;;;;;;5091445;28;20116;-50
2021/08/13 01:37:11;;;;;;;6.03;4.60;;;;;;;;;;5091611;28;20463;-48
2021/08/13 01:39:38;;;;;;;6.15;4.30;;;;;;;;;;5091452;28;20024;-45
2021/08/13 01:42:05;;;;;;;5.65;4.35;;;;;;;;;;5091526;28;20028;-46
2021/08/13 01:44:31;;;;;;;5.05;4.10;;;;;;;;;;5091577;28;20465;-45
2021/08/13 01:46:58;;;;;;;8.75;4.15;;;;;;;;;;5091367;28;20447;-47
2021/08/13 01:49:25;;;;;;;5.75;4.53;;;;;;;;;;5091354;28;20020;-46
2021/08/13 01:51:51;;;;;;;5.63;4.35;;;;;;;;;;5091337;28;20020;-47
2021/08/13 01:54:17;;;;;;;9.40;4.70;;;;;;;;;;5091162;28;20024;-47
2021/08/13 01:56:44;;;;;;;6.50;4.50;;;;;;;;;;5091266;28;20017;-49
2021/08/13 01:59:10;;;;;;;5.72;4.53;;;;;;;;;;5091361;28;20487;-49
2021/08/13 02:01:36;;;;;;;4.93;4.15;;;;;;;;;;5091236;28;20413;-46
2021/08/13 02:04:03;;;;;;;4.35;3.88;;;;;;;;;;5091277;28;20043;-46
2021/08/13 02:06:33;;;;;;;5.20;4.70;;;;;;;;;;5091085;28;20121;-46
2021/08/13 02:09:00;;;;;;;5.82;4.55;;;;;;;;;;5091059;28;20035;-45
2021/08/13 02:11:26;;;;;;;4.57;3.83;;;;;;;;;;5091156;28;20074;-46
2021/08/13 02:13:53;;;;;;;5.28;4.18;;;;;;;;;;5091872;28;20013;-46
2021/08/13 02:16:22;;;;;;;9.77;4.88;;;;;;;;;;5094733;28;20056;-48
2021/08/13 02:18:54;;;;;;;5.90;4.45;;;;;;;;;;5094553;28;20052;-46
2021/08/13 02:21:22;;;;;;;5.22;4.35;;;;;;;;;;5094654;28;20035;-46
2021/08/13 02:23:48;;;;;;;4.72;3.90;;;;;;;;;;5094583;28;20049;-46
2021/08/13 02:26:14;;;;;;;8.38;4.90;;;;;;;;;;5094611;28;20410;-46
2021/08/13 02:28:40;;;;;;;7.43;4.72;;;;;;;;;;5094404;28;20486;-46
2021/08/13 02:31:06;;;;;;;5.85;4.10;;;;;;;;;;5094456;28;20020;-47
2021/08/13 02:33:32;;;;;;;6.00;4.50;;;;;;;;;;5094397;28;20027;-49
2021/08/13 02:36:02;;;;;;;6.00;4.53;;;;;;;;;;5094364;28;20020;-45
2021/08/13 02:38:31;;;;;;;6.63;4.50;;;;;;;;;;5094328;28;20109;-45
2021/08/13 02:41:00;;;;;;;5.85;4.15;;;;;;;;;;5094364;28;20070;-45
2021/08/13 02:43:31;;;;;;;5.72;4.30;;;;;;;;;;5094505;28;20058;-46
2021/08/13 02:46:02;;;;;;;4.93;3.88;;;;;;;;;;5094109;28;20031;-45
2021/08/13 02:48:28;;;;;;;5.32;3.97;;;;;;;;;;5094022;28;20035;-45
2021/08/13 02:50:56;;;;;;;5.82;4.47;;;;;;;;;;5094077;28;20410;-46
2021/08/13 02:53:23;;;;;;;7.28;5.10;;;;;;;;;;5094022;28;20028;-48
2021/08/13 02:55:52;;;;;;;5.15;4.40;;;;;;;;;;5094147;28;20031;-48
2021/08/13 02:58:18;;;;;;;7.00;4.57;;;;;;;;;;5094081;28;20052;-48
2021/08/13 03:00:46;;;;;;;8.00;4.82;;;;;;;;;;5093951;28;20039;-47
2021/08/13 03:03:13;;;;;;;21.23;5.00;;;;;;;;;;5094010;28;20447;-47
2021/08/13 03:05:43;;;;;;;6.45;4.88;;;;;;;;;;5093830;28;20097;-46
2021/08/13 03:08:09;;;;;;;6.47;4.88;;;;;;;;;;5093829;28;20031;-46
2021/08/13 03:10:37;;;;;;;6.25;4.85;;;;;;;;;;5093943;28;20024;-46
2021/08/13 03:13:04;;;;;;;6.18;5.10;;;;;;;;;;5093703;28;20471;-47
2021/08/13 03:15:31;;;;;;;7.22;5.18;;;;;;;;;;5093386;28;20483;-49
2021/08/13 03:17:57;;;;;;;8.45;4.63;;;;;;;;;;5093347;28;20150;-48
2021/08/13 03:20:23;;;;;;;7.18;5.18;;;;;;;;;;5093455;28;20024;-47
2021/08/13 03:22:50;;;;;;;6.90;4.57;;;;;;;;;;5093421;28;20491;-47
2021/08/13 03:25:17;;;;;;;8.73;5.47;;;;;;;;;;5092625;28;20109;-47
2021/08/13 03:27:43;;;;;;;5.32;4.15;;;;;;;;;;5093218;28;20024;-46
2021/08/13 03:30:09;;;;;;;8.32;5.47;;;;;;;;;;5058725;28;20024;-46
2021/08/13 03:32:36;;;;;;;5.93;4.72;;;;;;;;;;5093505;28;20383;-47
2021/08/13 03:35:02;;;;;;;5.55;4.25;;;;;;;;;;5075129;28;20016;-47
2021/08/13 03:37:30;;;;;;;6.45;4.65;;;;;;;;;;5093215;28;20024;-46
2021/08/13 03:39:56;;;;;;;6.82;4.40;;;;;;;;;;5074999;28;20036;-49
2021/08/13 03:42:22;;;;;;;8.20;4.85;;;;;;;;;;5093118;28;20016;-47
2021/08/13 03:44:48;;;;;;;5.47;4.93;;;;;;;;;;5074936;28;20477;-47
2021/08/13 03:47:14;;;;;;;7.22;5.00;;;;;;;;;;5074456;28;20497;-46
2021/08/13 03:49:40;;;;;;;6.82;5.32;;;;;;;;;;5092997;28;20024;-46
2021/08/13 03:52:06;;;;;;;6.30;4.57;;;;;;;;;;5092965;28;20016;-47
2021/08/13 03:54:32;;;;;;;9.48;4.93;;;;;;;;;;5092756;28;20020;-46
2021/08/13 03:56:58;;;;;;;6.03;4.95;;;;;;;;;;5092983;28;20099;-47
2021/08/13 03:59:24;;;;;;;7.32;4.30;;;;;;;;;;5092764;28;20157;-46
2021/08/13 04:01:50;;;;;;;5.03;4.40;;;;;;;;;;5092860;28;20103;-49
2021/08/13 04:04:16;;;;;;;7.57;4.38;;;;;;;;;;5092845;28;20020;-46
2021/08/13 04:06:42;;;;;;;5.65;4.78;;;;;;;;;;5092703;28;20024;-46
2021/08/13 04:09:08;;;;;;;6.38;4.50;;;;;;;;;;5092465;28;20031;-46
2021/08/13 04:11:34;;;;;;;7.35;5.28;;;;;;;;;;5092421;28;20069;-48
2021/08/13 04:14:00;;;;;;;6.45;4.72;;;;;;;;;;5091130;28;20016;-46
2021/08/13 04:16:26;;;;;;;6.05;3.90;;;;;;;;;;5091900;28;20027;-45
2021/08/13 04:18:52;;;;;;;11.20;5.43;;;;;;;;;;5091733;28;20055;-46
2021/08/13 04:21:18;;;;;;;7.18;4.55;;;;;;;;;;5092233;28;20471;-47
2021/08/13 04:23:44;;;;;;;6.43;4.53;;;;;;;;;;5092237;28;20024;-46
2021/08/13 04:26:10;;;;;;;5.88;4.97;;;;;;;;;;5091778;28;20036;-45
2021/08/13 04:28:36;;;;;;;6.90;4.75;;;;;;;;;;5092119;28;20119;-47
2021/08/13 04:31:02;;;;;;;5.40;4.47;;;;;;;;;;5092284;28;20020;-46
2021/08/13 04:33:29;;;;;;;7.30;4.97;;;;;;;;;;5092066;28;20012;-46
2021/08/13 04:35:55;;;;;;;4.95;4.35;;;;;;;;;;5091715;28;20020;-47
2021/08/13 04:38:21;;;;;;;6.90;3.65;;;;;;;;;;5084967;28;20111;-49
2021/08/13 04:40:47;;;;;;;6.68;4.70;;;;;;;;;;5091844;28;20020;-46
2021/08/13 04:43:13;;;;;;;7.43;4.78;;;;;;;;;;5091338;28;20078;-46
2021/08/13 04:45:43;;;;;;;7.05;5.43;;;;;;;;;;5091199;28;20074;-49
2021/08/13 04:48:09;;;;;;;5.75;5.07;;;;;;;;;;5092197;28;20151;-48
2021/08/13 04:50:35;;;;;;;6.22;5.20;;;;;;;;;;5090261;28;20027;-46
2021/08/13 04:53:02;;;;;;;5.93;4.55;;;;;;;;;;5091063;28;20024;-49
2021/08/13 04:55:28;;;;;;;7.63;5.10;;;;;;;;;;5072287;28;20024;-46
2021/08/13 04:57:55;;;;;;;7.28;5.18;;;;;;;;;;5090375;28;20124;-49
2021/08/13 05:00:22;;;;;;;5.43;4.40;;;;;;;;;;5064253;28;20392;-46
2021/08/13 05:02:48;;;;;;;9.35;5.38;;;;;;;;;;5086252;28;20032;-50
2021/08/13 05:05:14;;;;;;;6.35;4.70;;;;;;;;;;5082763;28;20063;-46
2021/08/13 05:07:40;;;;;;;6.13;5.05;;;;;;;;;;5088897;28;20032;-47
2021/08/13 05:10:08;;;;;;;7.85;4.55;;;;;;;;;;5091058;28;20020;-47
2021/08/13 05:12:34;;;;;;;7.28;4.53;;;;;;;;;;5082131;28;20036;-49
2021/08/13 05:15:00;;;;;;;5.18;4.20;;;;;;;;;;5081302;28;20414;-50
2021/08/13 05:17:26;;;;;;;5.53;4.50;;;;;;;;;;5080428;28;20415;-47
2021/08/13 05:19:52;;;;;;;6.03;5.00;;;;;;;;;;5066463;28;20039;-51
2021/08/13 05:22:18;;;;;;;5.47;4.68;;;;;;;;;;5084156;28;20020;-47
2021/08/13 05:24:44;;;;;;;4.88;4.38;;;;;;;;;;5081699;28;20028;-47
2021/08/13 05:27:10;;;;;;;9.35;5.20;;;;;;;;;;5090276;28;20025;-47
2021/08/13 05:29:36;;;;;;;8.65;5.30;;;;;;;;;;5073304;28;20040;-49
2021/08/13 05:32:02;;;;;;;7.80;5.60;;;;;;;;;;5090516;28;20016;-53
2021/08/13 05:34:28;;;;;;;5.88;4.68;;;;;;;;;;5090884;28;20024;-48
2021/08/13 05:36:54;;;;;;;9.48;5.00;;;;;;;;;;5090731;28;20025;-47
2021/08/13 05:39:20;;;;;;;7.68;4.70;;;;;;;;;;5072587;28;20077;-49
2021/08/13 05:41:46;;;;;;;5.30;4.63;;;;;;;;;;5090188;28;20028;-49
2021/08/13 05:44:12;;;;;;;5.50;4.72;;;;;;;;;;5090087;28;20028;-50
2021/08/13 05:46:38;;;;;;;6.97;4.93;;;;;;;;;;5091077;28;20099;-48
2021/08/13 05:49:04;;;;;;;11.63;5.30;;;;;;;;;;5074176;28;20067;-49
2021/08/13 05:51:30;;;;;;;8.95;5.63;;;;;;;;;;5077105;28;20024;-47
2021/08/13 05:53:56;;;;;;;5.93;4.75;;;;;;;;;;5094920;28;20024;-50
2021/08/13 05:56:23;;;;;;;7.50;5.40;;;;;;;;;;5095278;28;20027;-46
2021/08/13 05:58:49;;;;;;;6.00;4.60;;;;;;;;;;5094540;28;20024;-47
2021/08/13 06:01:15;;;;;;;5.57;4.97;;;;;;;;;;5095033;28;20047;-48
2021/08/13 06:03:41;;;;;;;8.80;4.60;;;;;;;;;;5077075;28;20471;-46
2021/08/13 06:06:07;;;;;;;6.55;5.63;;;;;;;;;;5094895;28;20028;-50
2021/08/13 06:08:33;;;;;;;6.10;4.93;;;;;;;;;;5094831;28;20682;-46
2021/08/13 06:11:00;;;;;;;8.98;5.93;;;;;;;;;;5093848;28;20028;-47
2021/08/13 06:13:26;;;;;;;8.00;5.50;;;;;;;;;;5092536;28;20067;-49
2021/08/13 06:15:52;;;;;;;6.07;4.43;;;;;;;;;;5094271;28;20063;-47
2021/08/13 06:18:18;;;;;;;8.20;4.88;;;;;;;;;;5093825;28;20526;-49
2021/08/13 06:20:44;;;;;;;6.15;5.03;;;;;;;;;;5094034;28;20028;-47
2021/08/13 06:23:10;;;;;;;7.18;4.80;;;;;;;;;;5094428;28;20043;-49
2021/08/13 06:25:36;;;;;;;7.53;5.45;;;;;;;;;;5092741;28;20020;-50
2021/08/13 06:28:02;;;;;;;7.22;5.43;;;;;;;;;;5092565;28;20020;-48
2021/08/13 06:30:28;;;;;;;6.22;5.40;;;;;;;;;;5093521;28;20082;-48
2021/08/13 06:32:55;;;;;;;9.43;6.00;;;;;;;;;;5093876;28;20036;-47
2021/08/13 06:35:21;;;;;;;7.63;5.80;;;;;;;;;;5094438;28;20016;-47
2021/08/13 06:37:51;;;;;;;7.35;5.30;;;;;;;;;;5093415;28;20388;-48
2021/08/13 06:40:18;;;;;;;6.72;5.43;;;;;;;;;;5093715;28;20024;-47
2021/08/13 06:42:44;;;;;;;6.85;5.93;;;;;;;;;;5093718;28;20035;-46
2021/08/13 06:45:11;;;;;;;7.07;5.35;;;;;;;;;;5075186;28;20396;-48
2021/08/13 06:47:37;;;;;;;8.13;5.50;;;;;;;;;;5092168;28;20081;-47
2021/08/13 06:50:04;;;;;;;8.63;5.70;;;;;;;;;;5092888;28;20506;-49
2021/08/13 06:52:30;;;;;;;6.53;4.93;;;;;;;;;;5094142;28;20103;-50
2021/08/13 06:54:56;;;;;;;5.85;5.13;;;;;;;;;;5093446;28;20463;-48
2021/08/13 06:57:22;;;;;;;6.07;5.38;;;;;;;;;;5075446;28;20024;-47
2021/08/13 06:59:49;;;;;;;7.63;5.00;;;;;;;;;;5093859;28;20028;-48
2021/08/13 07:02:15;;;;;;;6.68;4.90;;;;;;;;;;5093598;28;20031;-47
2021/08/13 07:04:41;;;;;;;8.02;5.32;;;;;;;;;;5093530;28;20028;-46
2021/08/13 07:07:07;;;;;;;7.13;6.10;;;;;;;;;;5093361;28;20024;-49
2021/08/13 07:09:34;;;;;;;6.53;5.30;;;;;;;;;;5075435;28;20016;-47
2021/08/13 07:12:00;;;;;;;7.32;5.55;;;;;;;;;;5075289;28;20035;-49
2021/08/13 07:14:26;;;;;;;6.72;5.10;;;;;;;;;;5093306;28;20020;-45
2021/08/13 07:16:52;;;;;;;8.50;5.30;;;;;;;;;;5093242;28;20475;-46
2021/08/13 07:19:18;;;;;;;7.80;5.20;;;;;;;;;;5093340;28;20035;-49
2021/08/13 07:21:44;;;;;;;6.88;4.93;;;;;;;;;;5093337;28;20047;-47
2021/08/13 07:24:10;;;;;;;6.75;4.80;;;;;;;;;;5075143;28;20462;-48
2021/08/13 07:26:36;;;;;;;5.80;5.05;;;;;;;;;;5093274;28;20020;-49
2021/08/13 07:29:02;;;;;;;6.13;4.10;;;;;;;;;;5093343;28;20552;-50
2021/08/13 07:31:28;;;;;;;5.65;4.93;;;;;;;;;;5093454;28;20429;-46
2021/08/13 07:33:54;;;;;;;5.00;4.15;;;;;;;;;;5093189;28;20069;-48
2021/08/13 07:36:25;;;;;;;5.65;4.47;;;;;;;;;;5093049;28;20028;-46
2021/08/13 07:38:51;;;;;;;5.28;4.10;;;;;;;;;;5092989;28;20415;-47
2021/08/13 07:41:17;;;;;;;4.45;4.03;;;;;;;;;;5093153;28;20098;-49
2021/08/13 07:43:43;;;;;;;6.97;4.53;;;;;;;;;;5074979;28;20545;-49
2021/08/13 07:46:10;;;;;;;6.00;4.20;;;;;;;;;;5093001;28;20024;-46
2021/08/13 07:48:36;;;;;;;5.35;4.15;;;;;;;;;;5092818;28;20111;-47
2021/08/13 07:51:02;;;;;;;4.82;4.35;;;;;;;;;;5074759;28;20103;-46
2021/08/13 07:53:28;;;;;;;5.18;4.05;;;;;;;;;;5092655;28;20036;-48
2021/08/13 07:55:54;;;;;;;5.75;3.92;;;;;;;;;;5092610;28;20073;-46
2021/08/13 07:58:20;;;;;;;4.88;4.30;;;;;;;;;;5092313;28;20031;-47
2021/08/13 08:00:46;;;;;;;5.82;4.10;;;;;;;;;;5092795;28;20028;-48
2021/08/13 08:03:13;;;;;;;7.53;4.55;;;;;;;;;;5073946;28;20044;-48
2021/08/13 08:05:39;;;;;;;3.63;3.13;;;;;;;;;;5092227;28;20069;-47
2021/08/13 08:08:05;;;;;;;3.70;3.30;;;;;;;;;;5092145;28;20487;-50
2021/08/13 08:10:31;;;;;;;3.40;3.10;;;;;;;;;;5092305;28;20020;-47
2021/08/13 08:12:58;;;;;;;4.30;3.55;;;;;;;;;;5092019;28;20099;-50
2021/08/13 08:15:24;;;;;;;3.40;3.10;;;;;;;;;;5092112;28;20031;-45
2021/08/13 08:17:50;;;;;;;4.32;3.65;;;;;;;;;;5092166;28;20051;-47
2021/08/13 08:20:16;;;;;;;5.75;3.53;;;;;;;;;;5092209;28;20051;-45
2021/08/13 08:22:42;;;;;;;6.85;3.42;;;;;;;;;;5092240;28;20494;-46
2021/08/13 08:25:09;;;;;;;5.05;3.15;;;;;;;;;;5092082;28;20033;-46
2021/08/13 08:27:35;;;;;;;6.03;3.70;;;;;;;;;;5073948;28;20028;-47
2021/08/13 08:30:01;;;;;;;7.40;3.38;;;;;;;;;;5091866;28;20067;-47
2021/08/13 08:32:27;;;;;;;3.13;2.80;;;;;;;;;;5092107;28;20026;-47
2021/08/13 08:34:53;;;;;;;3.22;2.85;;;;;;;;;;5091997;28;20024;-47
2021/08/13 08:37:20;;;;;;;3.85;3.45;;;;;;;;;;5091929;28;20027;-47
2021/08/13 08:39:47;;;;;;;4.15;3.28;;;;;;;;;;5091798;28;20028;-46
2021/08/13 08:42:14;;;;;;;3.90;3.38;;;;;;;;;;5091800;28;20024;-47
2021/08/13 08:44:41;;;;;;;6.72;4.05;;;;;;;;;;5091730;28;20471;-46
2021/08/13 08:47:08;;;;;;;5.70;3.55;;;;;;;;;;5091765;28;20142;-48
2021/08/13 08:49:34;;;;;;;3.83;3.35;;;;;;;;;;5073681;28;20020;-47
2021/08/13 08:52:00;;;;;;;4.57;3.55;;;;;;;;;;5091601;28;20103;-49
2021/08/13 08:54:27;;;;;;;5.88;4.00;;;;;;;;;;5091820;28;20099;-46
2021/08/13 08:56:54;;;;;;;5.60;3.88;;;;;;;;;;5091786;28;20109;-48
2021/08/13 08:59:22;;;;;;;4.43;3.88;;;;;;;;;;5091819;28;20208;-47
2021/08/13 09:01:49;;;;;;;7.55;3.90;;;;;;;;;;5091614;28;20102;-46
2021/08/13 09:04:15;;;;;;;5.32;3.90;;;;;;;;;;5091748;28;20028;-46
2021/08/13 09:06:41;;;;;;;4.30;3.55;;;;;;;;;;5091817;28;20024;-48
2021/08/13 09:09:08;;;;;;;5.15;3.75;;;;;;;;;;5091707;28;20028;-47
2021/08/13 09:11:35;;;;;;;4.97;3.67;;;;;;;;;;5091698;28;20028;-47
2021/08/13 09:14:03;;;;;;;6.95;4.13;;;;;;;;;;5073486;28;20024;-46
2021/08/13 09:16:29;;;;;;;4.85;3.83;;;;;;;;;;5091748;28;20032;-47
2021/08/13 09:18:59;;;;;;;4.60;3.20;;;;;;;;;;5073754;28;20035;-47
2021/08/13 09:21:25;;;;;;;4.18;3.30;;;;;;;;;;5091392;28;20104;-47
2021/08/13 09:23:54;;;;;;;3.75;2.97;;;;;;;;;;5092238;28;20031;-46
2021/08/13 09:26:20;;;;;;;7.68;3.47;;;;;;;;;;5095335;28;20059;-46
2021/08/13 09:29:07;;;;;;;4.85;3.20;;;;;;;;;;5095503;28;20077;-50
2021/08/13 09:31:34;;;;;;;4.28;3.20;;;;;;;;;;5095130;28;20093;-49
2021/08/13 09:34:10;;;;;;;4.55;3.25;;;;;;;;;;5095516;28;20089;-50
2021/08/13 09:36:38;;;;;;;3.65;3.00;;;;;;;;;;5095283;28;20016;-45
2021/08/13 09:39:04;;;;;;;6.10;3.28;;;;;;;;;;5095237;28;20035;-50
2021/08/13 09:41:30;;;;;;;4.10;2.75;;;;;;;;;;5095303;28;20403;-50
2021/08/13 09:43:56;;;;;;;4.13;3.08;;;;;;;;;;5095346;28;20051;-48
2021/08/13 09:46:23;;;;;;;3.25;2.72;;;;;;;;;;5095160;28;20031;-49
2021/08/13 09:48:49;;;;;;;5.15;3.50;;;;;;;;;;5095141;28;20025;-48
2021/08/13 09:51:47;;;;;;;3.60;2.97;;;;;;;;;;5094989;28;20019;-47
2021/08/13 09:54:13;;;;;;;4.28;3.38;;;;;;;;;;5039757;28;20036;-50
2021/08/13 09:56:40;;;;;;;3.60;3.05;;;;;;;;;;5094848;28;20111;-46
2021/08/13 09:59:11;;;;;;;4.55;3.17;;;;;;;;;;5094863;28;20489;-47
2021/08/13 10:01:41;;;;;;;3.63;3.20;;;;;;;;;;5095078;28;20742;-46
2021/08/13 10:04:08;;;;;;;3.13;2.75;;;;;;;;;;5094858;28;20016;-48
2021/08/13 10:06:34;;;;;;;4.57;2.72;;;;;;;;;;5094891;28;20028;-49
2021/08/13 10:09:01;;;;;;;4.03;3.28;;;;;;;;;;5094643;28;20020;-46
2021/08/13 10:11:27;;;;;;;5.90;3.50;;;;;;;;;;5094721;28;20024;-46
2021/08/13 10:13:54;;;;;;;6.68;3.15;;;;;;;;;;5094799;28;20028;-44
2021/08/13 10:16:23;;;;;;;5.03;3.15;;;;;;;;;;5094930;28;20036;-46
2021/08/13 10:18:56;;;;;;;4.80;3.00;;;;;;;;;;5093109;28;20051;-48
2021/08/13 10:21:23;;;;;;;6.68;3.30;;;;;;;;;;5093440;28;20050;-44
2021/08/13 10:23:50;;;;;;;4.45;2.90;;;;;;;;;;5093209;28;20024;-44
2021/08/13 10:26:16;;;;;;;3.97;3.28;;;;;;;;;;5093151;28;20024;-45
2021/08/13 10:28:42;;;;;;;5.32;3.17;;;;;;;;;;5093072;28;20020;-44
2021/08/13 10:31:08;;;;;;;5.30;3.10;;;;;;;;;;5093059;28;20048;-46
2021/08/13 10:33:34;;;;;;;3.22;2.70;;;;;;;;;;5093065;28;20016;-46
2021/08/13 10:36:02;;;;;;;4.43;3.35;;;;;;;;;;5092592;28;20032;-45
2021/08/13 10:38:30;;;;;;;3.95;2.90;;;;;;;;;;5092991;28;20028;-46
2021/08/13 10:40:56;;;;;;;3.78;3.47;;;;;;;;;;5092821;28;20028;-45
2021/08/13 10:43:29;;;;;;;2.70;2.50;;;;;;;;;;5092847;28;20031;-45
2021/08/13 10:45:55;;;;;;;3.67;3.03;;;;;;;;;;5093056;28;20024;-43
2021/08/13 10:48:26;;;;;;;4.68;3.10;;;;;;;;;;5092730;28;20467;-46
2021/08/13 10:50:59;;;;;;;3.45;2.75;;;;;;;;;;5092715;28;20024;-48
2021/08/13 10:53:33;;;;;;;3.15;2.95;;;;;;;;;;5093227;28;20031;-46
2021/08/13 10:56:00;;;;;;;5.68;3.30;;;;;;;;;;5092738;28;20356;-44
2021/08/13 10:58:42;;;;;;;2.83;2.53;;;;;;;;;;5092799;28;20025;-44
2021/08/13 11:01:08;;;;;;;3.50;3.20;;;;;;;;;;5093128;28;20923;-44
2021/08/13 11:03:57;;;;;;;3.15;2.85;;;;;;;;;;5074744;28;20151;-45
2021/08/13 11:06:44;;;;;;;6.28;2.70;;;;;;;;;;5079962;28;20123;-46
2021/08/13 11:09:10;;;;;;;3.97;2.70;;;;;;;;;;5092585;28;20077;-44
2021/08/13 11:11:52;;;;;;;2.85;2.65;;;;;;;;;;5092826;28;20332;-45
2021/08/13 11:14:25;;;;;;;3.67;3.10;;;;;;;;;;5092476;28;20016;-47
2021/08/13 11:16:51;;;;;;;4.10;2.93;;;;;;;;;;5054356;28;1086646;-45
2021/08/13 11:19:19;;;;;;;4.60;3.42;;;;;;;;;;5075321;28;20303;-46
2021/08/13 11:21:50;;;;;;;3.55;2.78;;;;;;;;;;5093667;28;20017;-46
2021/08/13 11:24:17;;;;;;;5.20;3.60;;;;;;;;;;5075200;28;20027;-45
2021/08/13 11:26:49;;;;;;;4.78;2.95;;;;;;;;;;5093280;28;20032;-45
2021/08/13 11:29:30;;;;;;;2.92;2.63;;;;;;;;;;5093125;28;20446;-46
2021/08/13 11:32:09;;;;;;;5.50;2.70;;;;;;;;;;5093430;28;20024;-44
2021/08/13 11:34:53;;;;;;;2.70;2.50;;;;;;;;;;5093150;28;20027;-45
2021/08/13 11:37:32;;;;;;;4.63;2.75;;;;;;;;;;5093060;28;20055;-43
2021/08/13 11:40:00;;;;;;;4.60;3.10;;;;;;;;;;5093197;28;20595;-45
2021/08/13 11:42:32;;;;;;;2.80;2.60;;;;;;;;;;5093214;28;20131;-45
2021/08/13 11:44:59;;;;;;;3.15;2.50;;;;;;;;;;5092917;28;20020;-47
2021/08/13 11:47:25;;;;;;;10.07;2.67;;;;;;;;;;5092045;28;20020;-45
2021/08/13 11:49:52;;;;;;;5.22;2.80;;;;;;;;;;5092763;28;20475;-46
2021/08/13 11:52:19;;;;;;;3.22;2.70;;;;;;;;;;5092748;28;20020;-44
2021/08/13 11:54:45;;;;;;;2.72;2.50;;;;;;;;;;5074545;28;20097;-44
2021/08/13 11:57:12;;;;;;;3.47;2.90;;;;;;;;;;5092481;28;20021;-45
2021/08/13 11:59:38;;;;;;;3.03;2.28;;;;;;;;;;5092504;28;20313;-45
2021/08/13 12:02:04;;;;;;;2.72;2.53;;;;;;;;;;5092512;28;20488;-44
2021/08/13 12:04:31;;;;;;;3.22;2.20;;;;;;;;;;5093033;28;20032;-44
2021/08/13 12:07:08;;;;;;;2.50;2.30;;;;;;;;;;5092544;28;20103;-44
2021/08/13 12:09:40;;;;;;;2.70;2.40;;;;;;;;;;5092490;28;20024;-44
2021/08/13 12:12:06;;;;;;;2.60;2.33;;;;;;;;;;5092352;28;20020;-44
2021/08/13 12:14:33;;;;;;;2.47;2.25;;;;;;;;;;5092263;28;20020;-44
2021/08/13 12:16:59;;;;;;;3.05;2.40;;;;;;;;;;5092162;28;20048;-44
2021/08/13 12:19:25;;;;;;;2.45;2.22;;;;;;;;;;5092113;28;20028;-45
2021/08/13 12:21:55;;;;;;;2.78;2.50;;;;;;;;;;5092218;28;20027;-46
2021/08/13 12:24:35;;;;;;;2.97;2.70;;;;;;;;;;5092140;28;20485;-45
2021/08/13 12:27:02;;;;;;;3.08;2.80;;;;;;;;;;5092038;28;20387;-44
2021/08/13 12:29:30;;;;;;;2.63;2.42;;;;;;;;;;5091987;28;20070;-46
2021/08/13 12:31:57;;;;;;;3.72;2.30;;;;;;;;;;5092135;28;20024;-45
2021/08/13 12:34:23;;;;;;;3.92;2.60;;;;;;;;;;5092001;28;20024;-45
2021/08/13 12:37:08;;;;;;;2.40;2.20;;;;;;;;;;5091987;28;20016;-44
2021/08/13 12:39:36;;;;;;;3.83;2.15;;;;;;;;;;5091740;28;20032;-43
2021/08/13 12:42:02;;;;;;;2.42;2.22;;;;;;;;;;5091873;28;20074;-45
2021/08/13 12:44:29;;;;;;;2.55;2.00;;;;;;;;;;5091882;28;20020;-45
2021/08/13 12:46:55;;;;;;;2.20;1.95;;;;;;;;;;5091823;28;20060;-44
2021/08/13 12:49:22;;;;;;;3.15;2.10;;;;;;;;;;5091781;28;20028;-44
2021/08/13 12:51:48;;;;;;;2.65;2.10;;;;;;;;;;5091739;28;20085;-46
2021/08/13 12:54:31;;;;;;;2.30;2.10;;;;;;;;;;5091598;28;20379;-45
2021/08/13 12:56:57;;;;;;;4.15;2.08;;;;;;;;;;5091720;28;20020;-46
2021/08/13 12:59:30;;;;;;;2.13;1.92;;;;;;;;;;5073647;28;20020;-45
2021/08/13 13:01:56;;;;;;;2.78;2.58;;;;;;;;;;5091591;28;20034;-44
2021/08/13 13:04:35;;;;;;;2.40;1.73;;;;;;;;;;5091581;28;20123;-44
2021/08/13 13:07:01;;;;;;;2.30;2.10;;;;;;;;;;5073554;28;20492;-47
2021/08/13 13:09:29;;;;;;;2.60;2.40;;;;;;;;;;5091403;28;20419;-46
2021/08/13 13:12:12;;;;;;;2.67;2.20;;;;;;;;;;5089836;28;20480;-47
2021/08/13 13:14:38;;;;;;;2.72;2.08;;;;;;;;;;5091373;28;20490;-46
2021/08/13 13:17:05;;;;;;;3.28;2.20;;;;;;;;;;5090652;28;20515;-45
2021/08/13 13:19:31;;;;;;;2.95;1.90;;;;;;;;;;5090935;28;20107;-47
2021/08/13 13:22:16;;;;;;;2.92;2.20;;;;;;;;;;5091606;28;20493;-48
2021/08/13 13:24:42;;;;;;;3.35;2.47;;;;;;;;;;5091343;28;20075;-44
2021/08/13 13:27:08;;;;;;;2.60;2.40;;;;;;;;;;5090000;28;20383;-45
2021/08/13 13:29:36;;;;;;;2.20;2.00;;;;;;;;;;5083809;28;20134;-44
2021/08/13 13:32:19;;;;;;;2.50;2.30;;;;;;;;;;5078734;28;20025;-44
2021/08/13 13:34:58;;;;;;;2.80;2.50;;;;;;;;;;5079365;28;20024;-45
2021/08/13 13:37:25;;;;;;;2.40;2.20;;;;;;;;;;5060626;28;20426;-44
2021/08/13 13:39:51;;;;;;;4.97;2.00;;;;;;;;;;5080144;28;20486;-44
2021/08/13 13:42:17;;;;;;;2.42;2.22;;;;;;;;;;5062066;28;20467;-44
2021/08/13 13:44:44;;;;;;;2.20;2.00;;;;;;;;;;5078492;28;20021;-45
2021/08/13 13:47:10;;;;;;;2.83;2.47;;;;;;;;;;5077857;28;20062;-46
2021/08/13 13:49:36;;;;;;;3.17;2.40;;;;;;;;;;5070948;28;20029;-46
2021/08/13 13:52:02;;;;;;;2.15;2.05;;;;;;;;;;5071165;28;20023;-49
2021/08/13 13:54:28;;;;;;;2.42;2.10;;;;;;;;;;5070953;28;20025;-48
2021/08/13 13:56:54;;;;;;;2.42;2.22;;;;;;;;;;5071040;28;20134;-47
2021/08/13 13:59:20;;;;;;;2.05;1.95;;;;;;;;;;5070999;28;20020;-44
2021/08/13 14:01:46;;;;;;;2.67;1.77;;;;;;;;;;5071007;28;20037;-48
2021/08/13 14:04:12;;;;;;;2.80;2.60;;;;;;;;;;5070902;28;20099;-46
2021/08/13 14:06:38;;;;;;;2.05;1.90;;;;;;;;;;5079527;28;20491;-46
2021/08/13 14:09:04;;;;;;;4.13;2.45;;;;;;;;;;5089207;28;20035;-45
2021/08/13 14:11:30;;;;;;;3.15;2.55;;;;;;;;;;5094615;28;20028;-47
2021/08/13 14:13:58;;;;;;;2.28;2.08;;;;;;;;;;5094803;28;20096;-44
2021/08/13 14:16:24;;;;;;;3.35;2.45;;;;;;;;;;5094652;28;20031;-44
2021/08/13 14:18:50;;;;;;;2.50;2.30;;;;;;;;;;5075931;28;20518;-46
2021/08/13 14:21:16;;;;;;;3.08;2.20;;;;;;;;;;5094455;28;20028;-46
2021/08/13 14:23:43;;;;;;;3.67;2.08;;;;;;;;;;5094699;28;20039;-45
2021/08/13 14:26:09;;;;;;;3.70;2.45;;;;;;;;;;5094519;28;20024;-46
2021/08/13 14:28:35;;;;;;;6.53;2.33;;;;;;;;;;5094468;28;20027;-48
2021/08/13 14:31:02;;;;;;;2.13;2.00;;;;;;;;;;5094465;28;20390;-46
2021/08/13 14:33:28;;;;;;;2.13;2.03;;;;;;;;;;5093580;28;20099;-45
2021/08/13 14:35:54;;;;;;;2.28;2.08;;;;;;;;;;5093680;28;20386;-48
2021/08/13 14:38:20;;;;;;;3.85;2.13;;;;;;;;;;5093729;28;20024;-44
2021/08/13 14:40:46;;;;;;;2.58;2.38;;;;;;;;;;5093584;28;20024;-44
2021/08/13 14:43:12;;;;;;;4.25;2.58;;;;;;;;;;5094307;28;20075;-44
2021/08/13 14:45:39;;;;;;;2.40;2.20;;;;;;;;;;5093644;28;20490;-50